Aérodrome :
LOGIN :

S'inscrire | Disclaimer

   EN    FR    IT 

 










Légende :    VFR   VFR Marginal   IFR   IFR Intensif   IFR Très Intensif
Visi : 
Plafond : 
>= 8 km
>= 3000ft
5 à 8 km
1000 à 3000 ft
1500m à 5 km
500 à 1000 ft
800 à 1500m
200 à 500 ft
< 800m
< 200 ft
Symboles :   Orages  Brouillard  Fortes neiges  Fortes précipitations  Vent > 20 kt
SIGMETs :   Divers  Orages  Givrage  Turbulence  Onde Orograph.  Cendres Volcan.







- Altitude de l'aérodrome : 1470 ft
- Code IATA : KLU


LOWK - Klagenfurt

DERNIER METAR :
  • 290650Z 14003KT 070V200 9999 FEW003 SCT006 17/16 Q1001 NOSIG

METARs EXPIRÉS :
  • 290620Z VRB02KT 7000 FEW002 SCT009 16/14 Q1000 NOSIG
  • 290550Z VRB02KT 7000 FEW002 BKN013 BKN110 15/14 Q1000 BECMG FEW015 BKN120
  • 290520Z VRB02KT 7000 -SHRA FEW002 BKN012 FEW060CB BKN110 15/14 Q1001 BECMG FEW015 BKN120
  • 290450Z 29003KT 240V320 7000 -SHRA FEW002 BKN008 FEW060CB 15/14 Q1001 TEMPO SHRA SCT008 BKN070
  • 290420Z VRB02KT 7000 FEW002 BKN008 FEW060CB 15/14 Q1000 TEMPO SHRA SCT008 BKN070

TAF TAF LOWK
Valide du 29 à 06h jusqu'au 30 à 06h UTC


290515Z 2906/3006 VRB02KT 9999 FEW060 SCT080 TX23/2915Z TN14/3003Z
TEMPO 2906/2910 25008KT 6000 SHRA FEW050CB BKN060
PROB40 2906/2908 8000 BKN006
TEMPO 2910/2918 24015G25KT SCT060 FEW060CB
PROB30
TEMPO 2910/2915 -TSRA
TEMPO 3004/3006 BKN004
Pas de NOTAMs connus pour ce terrain.



MET'MAP, la Météo Aéronautique d'un coup d'oeil ! - Copyright ORBIFLY Décembre 2007 - Disclaimer

ORBIFLY MET'MAP TEAM :

Programmation & Développement : Alexandra Zaïnal
Conception & Développement : Baudouin d'Aumeries
Co-Programmation & Développement : Marc-Olivier Méhu
Soutien technique & logistique : Manuel Goepfert

Contact : metmap@orbifly.com




SOURCES & CREDITS :

   NOAA